createdAt,value
2023-05-11T00:01:50.314Z,2.77
2023-05-11T00:04:21.574Z,1.90
2023-05-11T00:06:49.837Z,2.13
2023-05-11T00:09:17.907Z,2.22
2023-05-11T00:11:48.658Z,2.53
2023-05-11T00:14:19.758Z,2.38
2023-05-11T00:16:47.960Z,2.00
2023-05-11T00:19:18.705Z,1.80
2023-05-11T00:21:55.357Z,1.65
2023-05-11T00:24:26.277Z,1.77
2023-05-11T00:26:54.596Z,1.95
2023-05-11T00:29:29.768Z,2.05
2023-05-11T00:31:58.010Z,2.30
2023-05-11T00:34:26.954Z,2.33
2023-05-11T00:36:59.775Z,1.92
2023-05-11T00:39:27.774Z,2.60
2023-05-11T00:41:59.250Z,1.98
2023-05-11T00:44:42.393Z,2.10
2023-05-11T00:47:10.496Z,1.85
2023-05-11T00:49:39.309Z,2.00
2023-05-11T00:52:10.476Z,2.03
2023-05-11T00:54:42.809Z,1.73
2023-05-11T00:57:13.701Z,1.80
2023-05-11T00:59:45.332Z,2.60
2023-05-11T01:02:17.797Z,1.95
2023-05-11T01:04:52.002Z,1.73
2023-05-11T01:07:55.266Z,1.70
2023-05-11T01:10:23.432Z,1.98
2023-05-11T01:12:57.083Z,2.78
2023-05-11T01:15:34.825Z,2.95
2023-05-11T01:18:13.392Z,2.72
2023-05-11T01:20:44.732Z,2.78
2023-05-11T01:23:27.595Z,2.40
2023-05-11T01:26:17.649Z,2.70
2023-05-11T01:29:31.688Z,2.40
2023-05-11T01:32:00.531Z,2.42
2023-05-11T01:34:32.020Z,2.40
2023-05-11T01:37:05.733Z,2.88
2023-05-11T01:39:39.454Z,2.80
2023-05-11T01:42:11.947Z,2.22
2023-05-11T01:44:42.902Z,2.78
2023-05-11T01:47:12.173Z,2.85
2023-05-11T01:49:42.678Z,2.35
2023-05-11T01:52:10.856Z,2.13
2023-05-11T01:54:41.105Z,2.20
2023-05-11T01:57:10.503Z,1.80
2023-05-11T01:59:40.955Z,2.03
2023-05-11T02:02:09.841Z,2.22
2023-05-11T02:04:39.623Z,2.28
2023-05-11T02:07:09.097Z,2.15
2023-05-11T02:09:38.060Z,2.10
2023-05-11T02:12:09.165Z,2.15
2023-05-11T02:14:41.548Z,2.20
2023-05-11T02:17:10.426Z,1.98
2023-05-11T02:19:39.838Z,2.00
2023-05-11T02:22:08.457Z,2.03
2023-05-11T02:24:36.735Z,2.15
2023-05-11T02:27:07.643Z,2.42
2023-05-11T02:29:35.886Z,2.17
2023-05-11T02:32:17.673Z,2.17
2023-05-11T02:34:50.746Z,1.95
2023-05-11T02:37:23.207Z,2.25
2023-05-11T02:39:59.347Z,2.03
2023-05-11T02:42:28.406Z,2.10
2023-05-11T02:45:04.503Z,2.20
2023-05-11T02:47:45.661Z,2.28
2023-05-11T02:50:19.864Z,2.15
2023-05-11T02:52:49.844Z,2.15
2023-05-11T02:55:18.700Z,3.17
2023-05-11T02:57:47.153Z,2.90
2023-05-11T03:00:15.401Z,3.10
2023-05-11T03:02:43.742Z,2.92
2023-05-11T03:05:12.150Z,3.17
2023-05-11T03:07:42.892Z,3.65
2023-05-11T03:10:11.779Z,3.25
2023-05-11T03:12:44.011Z,3.40
2023-05-11T03:15:12.930Z,2.63
2023-05-11T03:17:44.755Z,3.20
2023-05-11T03:20:17.156Z,3.38
2023-05-11T03:22:48.444Z,3.17
2023-05-11T03:25:19.434Z,3.22
2023-05-11T03:27:47.878Z,3.10
2023-05-11T03:30:18.909Z,2.80
2023-05-11T03:35:18.338Z,2.70
2023-05-11T03:37:46.678Z,2.55
2023-05-11T03:40:18.232Z,2.97
2023-05-11T03:42:52.197Z,3.83
2023-05-11T03:45:22.017Z,4.65
2023-05-11T03:47:51.234Z,4.32
2023-05-11T03:50:20.114Z,3.05
2023-05-11T03:52:51.783Z,3.55
2023-05-11T03:57:49.077Z,2.75
2023-05-11T04:00:17.840Z,4.32
2023-05-11T04:03:12.708Z,4.53
2023-05-11T04:05:41.732Z,3.55
2023-05-11T04:08:12.767Z,3.65
2023-05-11T04:10:40.589Z,3.90
2023-05-11T04:13:09.085Z,3.92
2023-05-11T04:15:37.985Z,3.75
2023-05-11T04:18:06.999Z,3.30
2023-05-11T04:20:35.812Z,4.10
2023-05-11T04:23:07.311Z,3.90
2023-05-11T04:25:39.528Z,3.67
2023-05-11T04:28:07.629Z,3.85
2023-05-11T04:30:35.630Z,4.97
2023-05-11T04:33:06.520Z,4.57
2023-05-11T04:35:40.695Z,5.10
2023-05-11T04:38:09.978Z,4.70
2023-05-11T04:40:38.838Z,4.50
2023-05-11T04:43:07.195Z,4.40
2023-05-11T04:45:35.787Z,4.30
2023-05-11T04:48:03.999Z,4.22
2023-05-11T04:50:32.394Z,4.32
2023-05-11T04:53:03.516Z,3.65
2023-05-11T04:55:31.503Z,3.72
2023-05-11T04:58:01.403Z,3.95
2023-05-11T05:00:29.670Z,4.60
2023-05-11T05:02:57.822Z,3.65
2023-05-11T05:05:25.752Z,3.70
2023-05-11T05:07:53.458Z,3.58
2023-05-11T05:10:22.167Z,4.30
2023-05-11T05:12:50.070Z,4.25
2023-05-11T05:15:18.107Z,4.75
2023-05-11T05:17:46.773Z,4.15
2023-05-11T05:20:16.511Z,4.30
2023-05-11T05:22:44.728Z,4.03
2023-05-11T05:25:12.590Z,4.28
2023-05-11T05:27:40.698Z,4.35
2023-05-11T05:30:12.762Z,3.90
2023-05-11T05:32:40.977Z,5.00
2023-05-11T05:35:09.314Z,3.90
2023-05-11T05:37:38.074Z,4.68
2023-05-11T05:40:07.530Z,4.72
2023-05-11T05:42:41.282Z,4.55
2023-05-11T05:45:14.960Z,4.72
2023-05-11T05:47:44.152Z,5.13
2023-05-11T05:50:12.486Z,4.10
2023-05-11T05:52:42.692Z,5.00
2023-05-11T05:55:11.600Z,4.95
2023-05-11T05:57:41.089Z,4.38
2023-05-11T06:00:11.494Z,4.47
2023-05-11T06:02:42.536Z,5.13
2023-05-11T06:05:19.512Z,4.97
2023-05-11T06:07:57.940Z,4.43
2023-05-11T06:10:33.051Z,4.30
2023-05-11T06:13:01.532Z,4.15
2023-05-11T06:15:30.400Z,4.80
2023-05-11T06:18:04.257Z,5.38
2023-05-11T06:20:35.573Z,5.22
2023-05-11T06:23:06.109Z,5.07
2023-05-11T06:25:38.935Z,4.60
2023-05-11T06:28:08.325Z,4.88
2023-05-11T06:30:39.452Z,5.55
2023-05-11T06:33:09.552Z,4.68
2023-05-11T06:35:39.161Z,5.25
2023-05-11T06:38:09.897Z,4.68
2023-05-11T06:40:39.375Z,5.10
2023-05-11T06:43:07.326Z,5.05
2023-05-11T06:45:54.501Z,5.07
2023-05-11T06:48:23.826Z,5.80
2023-05-11T06:50:52.077Z,4.70
2023-05-11T06:53:19.981Z,4.75
2023-05-11T06:55:48.153Z,5.50
2023-05-11T06:58:17.381Z,6.18
2023-05-11T07:00:45.270Z,5.30
2023-05-11T07:05:41.417Z,4.50
2023-05-11T07:08:10.565Z,5.15
2023-05-11T07:10:38.533Z,5.18
2023-05-11T07:13:06.436Z,4.50
2023-05-11T07:15:34.508Z,4.20
2023-05-11T07:18:02.799Z,5.57
2023-05-11T07:20:30.855Z,4.75
2023-05-11T07:22:59.638Z,4.88
2023-05-11T07:25:27.603Z,5.20
2023-05-11T07:27:56.038Z,5.03
2023-05-11T07:30:24.755Z,4.18
2023-05-11T07:32:53.225Z,4.70
2023-05-11T07:35:22.216Z,4.78
2023-05-11T07:37:51.817Z,4.65
2023-05-11T07:40:19.938Z,3.95
2023-05-11T07:42:48.129Z,3.97
2023-05-11T07:45:16.652Z,4.88
2023-05-11T07:47:45.335Z,4.82
2023-05-11T07:50:13.399Z,5.18
2023-05-11T07:52:42.000Z,4.22
2023-05-11T07:55:10.229Z,4.60
2023-05-11T07:57:38.419Z,4.70
2023-05-11T08:00:08.203Z,4.53
2023-05-11T08:02:48.106Z,4.45
2023-05-11T08:05:17.879Z,3.85
2023-05-11T08:07:46.917Z,4.63
2023-05-11T08:10:15.282Z,3.90
2023-05-11T08:12:43.465Z,4.85
2023-05-11T08:15:11.952Z,4.63
2023-05-11T08:17:39.860Z,4.20
2023-05-11T08:20:08.940Z,4.50
2023-05-11T08:22:37.529Z,3.92
2023-05-11T08:25:05.860Z,4.05
2023-05-11T08:27:34.158Z,4.50
2023-05-11T08:30:02.150Z,4.80
2023-05-11T08:32:30.794Z,4.32
2023-05-11T08:34:59.053Z,4.07
2023-05-11T08:37:26.996Z,5.30
2023-05-11T08:39:54.984Z,4.78
2023-05-11T08:42:25.343Z,4.05
2023-05-11T08:44:59.565Z,4.43
2023-05-11T08:47:27.796Z,3.88
2023-05-11T08:49:55.935Z,4.03
2023-05-11T08:52:23.823Z,3.75
2023-05-11T08:54:53.146Z,3.00
2023-05-11T08:57:21.432Z,2.45
2023-05-11T08:59:49.808Z,2.58
2023-05-11T09:02:19.372Z,2.97
2023-05-11T09:04:48.863Z,4.20
2023-05-11T09:07:18.476Z,3.78
2023-05-11T09:09:48.096Z,2.70
2023-05-11T09:12:17.476Z,2.17
2023-05-11T09:14:47.392Z,2.50
2023-05-11T09:17:15.657Z,1.95
2023-05-11T09:20:09.535Z,2.53
2023-05-11T09:22:49.725Z,2.35
2023-05-11T09:25:18.502Z,2.22
2023-05-11T09:27:47.468Z,2.80
2023-05-11T09:32:57.127Z,2.50
2023-05-11T09:35:31.813Z,3.30
2023-05-11T09:38:05.615Z,3.30
2023-05-11T09:40:38.729Z,3.08
2023-05-11T09:43:18.780Z,3.47
2023-05-11T09:45:48.619Z,3.97
2023-05-11T09:48:27.197Z,3.35
2023-05-11T09:51:06.494Z,4.20
2023-05-11T09:53:46.368Z,3.53
2023-05-11T09:56:15.997Z,3.65
2023-05-11T09:58:58.083Z,4.50
2023-05-11T10:01:33.864Z,4.90
2023-05-11T10:04:21.194Z,3.97
2023-05-11T10:06:50.605Z,4.53
2023-05-11T10:09:22.927Z,3.90
2023-05-11T10:11:51.693Z,4.20
2023-05-11T10:14:20.315Z,3.75
2023-05-11T10:16:48.966Z,4.43
2023-05-11T10:19:17.332Z,4.60
2023-05-11T10:21:45.589Z,4.05
2023-05-11T10:24:14.260Z,4.70
2023-05-11T10:26:42.825Z,4.97
2023-05-11T10:29:11.759Z,4.65
2023-05-11T10:31:39.832Z,5.05
2023-05-11T10:34:08.149Z,5.57
2023-05-11T10:36:36.333Z,5.00
2023-05-11T10:39:04.330Z,5.25
2023-05-11T10:42:19.886Z,4.57
2023-05-11T10:45:09.962Z,5.60
2023-05-11T10:48:06.565Z,5.25
2023-05-11T10:50:48.947Z,5.47
2023-05-11T10:53:29.336Z,5.80
2023-05-11T10:56:15.509Z,5.30
2023-05-11T10:58:55.506Z,5.72
2023-05-11T11:01:39.773Z,5.75
2023-05-11T11:04:09.669Z,5.72
2023-05-11T11:06:42.331Z,6.05
2023-05-11T11:09:13.736Z,5.20
2023-05-11T11:11:46.186Z,5.63
2023-05-11T11:14:16.031Z,5.45
2023-05-11T11:17:16.681Z,5.30
2023-05-11T11:19:44.930Z,5.47
2023-05-11T11:22:35.006Z,5.88
2023-05-11T11:25:06.437Z,4.50
2023-05-11T11:27:43.808Z,4.70
2023-05-11T11:30:24.693Z,4.82
2023-05-11T11:33:11.119Z,5.18
2023-05-11T11:35:42.580Z,4.45
2023-05-11T11:38:12.762Z,5.28
2023-05-11T11:40:52.657Z,4.78
2023-05-11T11:43:26.392Z,4.53
2023-05-11T11:46:04.215Z,4.63
2023-05-11T11:48:37.160Z,4.65
2023-05-11T11:51:10.727Z,4.72
2023-05-11T11:53:41.128Z,3.95
2023-05-11T11:56:15.210Z,5.32
2023-05-11T11:58:46.413Z,5.43
2023-05-11T12:03:44.387Z,3.83
2023-05-11T12:06:13.558Z,4.50
2023-05-11T12:08:44.895Z,4.15
2023-05-11T12:11:17.879Z,5.50
2023-05-11T12:13:46.353Z,4.53
2023-05-11T12:16:19.182Z,5.00
2023-05-11T12:18:56.046Z,5.55
2023-05-11T12:21:32.000Z,5.50
2023-05-11T12:24:05.620Z,5.07
2023-05-11T12:26:35.933Z,5.60
2023-05-11T12:29:18.922Z,5.30
2023-05-11T12:31:50.226Z,6.43
2023-05-11T12:34:25.345Z,5.82
2023-05-11T12:36:54.674Z,5.80
2023-05-11T12:39:24.675Z,5.80
2023-05-11T12:41:55.083Z,5.55
2023-05-11T12:44:27.241Z,4.95
2023-05-11T12:46:56.437Z,5.28
2023-05-11T12:49:26.821Z,5.28
2023-05-11T12:52:09.388Z,5.55
2023-05-11T12:54:43.618Z,5.70
2023-05-11T12:57:29.256Z,5.85
2023-05-11T13:00:08.242Z,4.82
2023-05-11T13:02:36.516Z,5.45
2023-05-11T13:05:14.679Z,6.00
2023-05-11T13:07:44.660Z,4.80
2023-05-11T13:10:15.756Z,5.78
2023-05-11T13:15:22.062Z,5.97
2023-05-11T13:18:01.599Z,5.32
2023-05-11T13:20:34.513Z,5.55
2023-05-11T13:23:12.210Z,5.43
2023-05-11T13:26:00.051Z,5.05
2023-05-11T13:28:30.783Z,5.43
2023-05-11T13:31:03.418Z,4.97
2023-05-11T13:33:32.229Z,6.18
2023-05-11T13:36:03.657Z,6.38
2023-05-11T13:38:31.624Z,5.53
2023-05-11T13:40:59.714Z,5.65
2023-05-11T13:43:27.658Z,6.25
2023-05-11T13:45:56.134Z,6.55
2023-05-11T13:48:24.105Z,6.53
2023-05-11T13:50:54.390Z,5.32
2023-05-11T13:53:22.568Z,6.05
2023-05-11T13:55:52.352Z,6.70
2023-05-11T13:58:20.834Z,6.05
2023-05-11T14:01:06.433Z,6.35
2023-05-11T14:03:36.221Z,5.75
2023-05-11T14:06:04.899Z,5.90
2023-05-11T14:08:33.015Z,5.82
2023-05-11T14:11:00.961Z,6.68
2023-05-11T14:13:28.849Z,6.80
2023-05-11T14:15:57.077Z,6.07
2023-05-11T14:18:26.215Z,6.40
2023-05-11T14:20:57.204Z,5.45
2023-05-11T14:25:53.464Z,6.38
2023-05-11T14:28:21.451Z,6.35
2023-05-11T14:30:49.746Z,6.20
2023-05-11T14:33:17.716Z,6.70
2023-05-11T14:35:45.835Z,6.30
2023-05-11T14:38:13.894Z,6.82
2023-05-11T14:40:42.378Z,5.50
2023-05-11T14:43:10.282Z,6.68
2023-05-11T14:45:38.176Z,6.30
2023-05-11T14:48:06.660Z,6.18
2023-05-11T14:50:35.116Z,6.38
2023-05-11T14:53:03.202Z,6.18
2023-05-11T14:55:31.733Z,6.28
2023-05-11T14:58:04.542Z,5.68
2023-05-11T15:00:33.113Z,6.32
2023-05-11T15:03:01.262Z,6.65
2023-05-11T15:05:29.189Z,6.35
2023-05-11T15:07:58.534Z,5.85
2023-05-11T15:10:27.833Z,6.20
2023-05-11T15:12:55.916Z,6.57
2023-05-11T15:15:24.149Z,6.60
2023-05-11T15:17:52.119Z,6.00
2023-05-11T15:20:20.487Z,6.63
2023-05-11T15:22:48.503Z,6.35
2023-05-11T15:25:16.868Z,6.07
2023-05-11T15:27:45.153Z,6.35
2023-05-11T15:30:14.009Z,4.95
2023-05-11T15:32:42.425Z,4.00
2023-05-11T15:35:10.529Z,3.95
2023-05-11T15:37:38.627Z,4.38
2023-05-11T15:40:10.906Z,5.13
2023-05-11T15:42:39.389Z,4.32
2023-05-11T15:45:07.968Z,4.05
2023-05-11T15:47:35.916Z,3.70
2023-05-11T15:50:04.401Z,2.42
2023-05-11T15:52:32.660Z,1.98
2023-05-11T15:55:00.620Z,2.40
2023-05-11T15:57:28.716Z,2.90
2023-05-11T15:59:56.689Z,2.80
2023-05-11T16:02:24.750Z,2.00
2023-05-11T16:04:55.521Z,2.30
2023-05-11T16:07:23.695Z,2.67
2023-05-11T16:09:51.667Z,2.70
2023-05-11T16:12:19.526Z,2.70
2023-05-11T16:14:47.379Z,2.95
2023-05-11T16:17:15.552Z,2.95
2023-05-11T16:19:43.856Z,3.63
2023-05-11T16:22:12.328Z,2.90
2023-05-11T16:24:40.457Z,3.22
2023-05-11T16:27:08.394Z,2.50
2023-05-11T16:29:36.495Z,1.98
2023-05-11T16:32:04.657Z,1.77
2023-05-11T16:34:32.991Z,1.70
2023-05-11T16:37:00.935Z,2.13
2023-05-11T16:39:29.321Z,2.00
2023-05-11T16:41:59.598Z,2.10
2023-05-11T16:44:28.043Z,2.08
2023-05-11T16:46:55.892Z,2.50
2023-05-11T16:49:24.437Z,2.42
2023-05-11T16:51:53.334Z,2.13
2023-05-11T16:54:21.489Z,2.35
2023-05-11T16:56:49.496Z,2.47
2023-05-11T16:59:17.709Z,2.60
2023-05-11T17:01:46.655Z,2.40
2023-05-11T17:04:15.450Z,2.63
2023-05-11T17:06:46.627Z,2.83
2023-05-11T17:09:14.834Z,2.53
2023-05-11T17:11:43.147Z,2.83
2023-05-11T17:14:11.381Z,2.63
2023-05-11T17:16:39.388Z,2.47
2023-05-11T17:19:08.132Z,2.33
2023-05-11T17:21:36.091Z,2.65
2023-05-11T17:24:04.647Z,2.95
2023-05-11T17:26:47.296Z,2.80
2023-05-11T17:29:17.382Z,2.50
2023-05-11T17:31:50.649Z,2.50
2023-05-11T17:34:20.006Z,2.15
2023-05-11T17:36:50.150Z,2.20
2023-05-11T17:39:19.557Z,2.40
2023-05-11T17:41:48.490Z,2.45
2023-05-11T17:44:16.851Z,2.75
2023-05-11T17:46:45.325Z,1.85
2023-05-11T17:49:14.759Z,2.50
2023-05-11T17:51:43.585Z,2.28
2023-05-11T17:54:12.086Z,2.30
2023-05-11T17:56:40.557Z,2.33
2023-05-11T17:59:09.406Z,2.42
2023-05-11T18:01:37.773Z,2.30
2023-05-11T18:04:06.104Z,2.22
2023-05-11T18:06:34.911Z,1.95
2023-05-11T18:09:05.297Z,2.13
2023-05-11T18:11:33.790Z,2.17
2023-05-11T18:14:02.125Z,2.30
2023-05-11T18:16:30.765Z,2.55
2023-05-11T18:19:00.568Z,2.10
2023-05-11T18:21:29.275Z,2.72
2023-05-11T18:23:57.448Z,2.20
2023-05-11T18:26:26.583Z,2.22
2023-05-11T18:28:55.317Z,2.25
2023-05-11T18:31:23.517Z,2.20
2023-05-11T18:33:51.556Z,2.45
2023-05-11T18:36:19.669Z,2.13
2023-05-11T18:38:49.230Z,2.63
2023-05-11T18:41:17.578Z,2.38
2023-05-11T18:43:45.750Z,2.97
2023-05-11T18:46:13.879Z,2.20
2023-05-11T18:48:42.912Z,2.28
2023-05-11T18:51:11.336Z,2.78
2023-05-11T18:53:42.563Z,2.28
2023-05-11T18:56:11.743Z,2.08
2023-05-11T18:58:39.815Z,1.98
2023-05-11T19:01:07.881Z,1.88
2023-05-11T19:03:38.190Z,2.95
2023-05-11T19:06:07.850Z,2.13
2023-05-11T19:08:35.844Z,2.33
2023-05-11T19:11:09.792Z,2.50
2023-05-11T19:13:38.003Z,2.58
2023-05-11T19:16:06.086Z,2.30
2023-05-11T19:18:36.010Z,2.17
2023-05-11T19:21:05.496Z,2.38
2023-05-11T19:23:34.311Z,2.47
2023-05-11T19:26:02.496Z,2.40
2023-05-11T19:28:30.843Z,2.72
2023-05-11T19:31:06.246Z,2.67
2023-05-11T19:33:34.429Z,2.63
2023-05-11T19:36:02.756Z,2.97
2023-05-11T19:38:30.869Z,2.25
2023-05-11T19:40:59.571Z,3.03
2023-05-11T19:43:27.718Z,2.30
2023-05-11T19:45:56.071Z,2.20
2023-05-11T19:50:55.599Z,2.25
2023-05-11T19:53:24.081Z,2.50
2023-05-11T19:55:55.076Z,2.70
2023-05-11T19:58:23.991Z,2.20
2023-05-11T20:00:52.296Z,2.58
2023-05-11T20:03:20.577Z,2.35
2023-05-11T20:05:49.081Z,3.10
2023-05-11T20:08:17.674Z,3.45
2023-05-11T20:10:46.338Z,2.90
2023-05-11T20:13:14.623Z,2.63
2023-05-11T20:15:43.251Z,2.50
2023-05-11T20:18:12.002Z,2.58
2023-05-11T20:20:39.957Z,2.63
2023-05-11T20:23:10.928Z,2.42
2023-05-11T20:25:44.166Z,2.63
2023-05-11T20:28:13.056Z,2.40
2023-05-11T20:30:40.914Z,2.50
2023-05-11T20:35:40.139Z,2.42
2023-05-11T20:38:08.236Z,2.15
2023-05-11T20:40:36.846Z,2.30
2023-05-11T20:43:05.173Z,1.98
2023-05-11T20:45:36.261Z,2.40
2023-05-11T20:48:07.244Z,2.15
2023-05-11T20:50:35.334Z,2.65
2023-05-11T20:53:08.487Z,2.47
2023-05-11T20:55:36.741Z,2.83
2023-05-11T20:58:05.305Z,2.67
2023-05-11T21:00:34.058Z,1.85
2023-05-11T21:03:02.750Z,1.88
2023-05-11T21:05:31.239Z,1.80
2023-05-11T21:08:00.318Z,1.65
2023-05-11T21:10:53.587Z,1.90
2023-05-11T21:13:21.926Z,2.10
2023-05-11T21:15:50.084Z,2.05
2023-05-11T21:18:18.198Z,2.20
2023-05-11T21:20:46.369Z,2.45
2023-05-11T21:23:14.554Z,2.20
2023-05-11T21:25:42.629Z,2.65
2023-05-11T21:28:10.932Z,2.25
2023-05-11T21:30:38.996Z,2.67
2023-05-11T21:33:07.181Z,2.53
2023-05-11T21:35:35.627Z,2.78
2023-05-11T21:38:04.387Z,2.88
2023-05-11T21:40:32.778Z,2.60
2023-05-11T21:43:00.718Z,2.70
2023-05-11T21:45:28.913Z,2.88
2023-05-11T21:47:59.002Z,2.92
2023-05-11T21:50:27.388Z,3.60
2023-05-11T21:52:55.506Z,3.08
2023-05-11T21:55:23.852Z,2.28
2023-05-11T21:57:53.109Z,2.15
2023-05-11T22:00:22.746Z,2.28
2023-05-11T22:02:51.339Z,3.03
2023-05-11T22:05:22.239Z,2.88
2023-05-11T22:07:57.696Z,1.90
2023-05-11T22:10:31.380Z,2.10
2023-05-11T22:13:00.512Z,1.92
2023-05-11T22:15:30.176Z,2.25
2023-05-11T22:17:58.570Z,2.08
2023-05-11T22:20:26.509Z,2.58
2023-05-11T22:22:54.654Z,2.47
2023-05-11T22:25:23.094Z,2.17
2023-05-11T22:27:50.969Z,2.92
2023-05-11T22:30:20.410Z,2.67
2023-05-11T22:32:48.517Z,2.50
2023-05-11T22:35:18.721Z,2.90
2023-05-11T22:37:47.460Z,3.30
2023-05-11T22:40:16.036Z,3.00
2023-05-11T22:42:44.050Z,3.58
2023-05-11T22:45:15.138Z,3.30
2023-05-11T22:47:43.169Z,3.60
2023-05-11T22:50:12.322Z,3.40
2023-05-11T22:52:40.209Z,3.47
2023-05-11T22:55:08.990Z,3.78
2023-05-11T22:57:40.249Z,3.67
2023-05-11T23:00:11.074Z,3.45
2023-05-11T23:02:39.264Z,3.33
2023-05-11T23:05:07.887Z,3.20
2023-05-11T23:07:36.248Z,3.25
2023-05-11T23:10:04.515Z,2.90
2023-05-11T23:12:32.648Z,3.47
2023-05-11T23:15:00.518Z,3.00
2023-05-11T23:17:28.523Z,3.22
2023-05-11T23:19:56.748Z,3.50
2023-05-11T23:22:24.692Z,2.88
2023-05-11T23:24:55.662Z,3.65
2023-05-11T23:27:23.790Z,3.10
2023-05-11T23:29:52.156Z,3.03
2023-05-11T23:32:20.070Z,2.90
2023-05-11T23:34:48.227Z,3.20
2023-05-11T23:37:17.386Z,3.33
2023-05-11T23:39:45.437Z,3.92
2023-05-11T23:42:13.758Z,3.55
2023-05-11T23:44:41.821Z,3.45
2023-05-11T23:47:09.960Z,3.00
2023-05-11T23:49:38.682Z,3.08
2023-05-11T23:52:06.862Z,3.03
2023-05-11T23:54:35.111Z,2.95
2023-05-11T23:57:03.022Z,2.85
2023-05-11T23:59:31.057Z,2.80
